This is the latest recevied weather packets stored in our database for station/object OK1VCF-5. If no packets are shown the sender has not sent any weather packets the latest 10 day(s).
| Time | Temp. | Humidity | Pressure | Rain* | Wind** | Luminosity | Snow |
|---|---|---|---|---|---|---|---|
| 1777758096 | 10° C | 61% | 1023 hPa | - | - | - | - |
| 1777757195 | 10° C | 64% | 1023 hPa | - | - | - | - |
| 1777756293 | 10° C | 63% | 1023 hPa | - | - | - | - |
| 1777755394 | 10° C | 64% | 1023 hPa | - | - | - | - |
| 1777754493 | 10.56° C | 61% | 1023.1 hPa | - | - | - | - |
| 1777753593 | 11.11° C | 58% | 1023.2 hPa | - | - | - | - |
| 1777752691 | 11.11° C | 57% | 1023.1 hPa | - | - | - | - |
| 1777751791 | 11.11° C | 57% | 1023.2 hPa | - | - | - | - |
| 1777750890 | 12.22° C | 54% | 1023 hPa | - | - | - | - |
| 1777749987 | 12.22° C | 54% | 1023 hPa | - | - | - | - |
| 1777749088 | 13.33° C | 52% | 1022.8 hPa | - | - | - | - |
| 1777748188 | 13.89° C | 50% | 1022.7 hPa | - | - | - | - |
| 1777747287 | 15° C | 42% | 1022.6 hPa | - | - | - | - |
| 1777747286 | - | - | - | - | - | - | - |
| 1777746387 | 15.56° C | 38% | 1022.4 hPa | - | - | - | - |
| 1777745488 | 17.78° C | 34% | 1022.2 hPa | - | - | - | - |
| 1777744584 | 18.33° C | 32% | 1022.2 hPa | - | - | - | - |
| 1777743684 | 18.89° C | 34% | 1022.3 hPa | - | - | - | - |
| 1777742781 | 21.11° C | 29% | 1022.4 hPa | - | - | - | - |
| 1777741882 | 21.67° C | 27% | 1022.4 hPa | - | - | - | - |
| 1777741881 | 21.67° C | 27% | 1022.4 hPa | - | - | - | - |
| 1777740981 | 22.22° C | 23% | 1022.4 hPa | - | - | - | - |
| 1777740079 | 23.33° C | 22% | 1022.5 hPa | - | - | - | - |
| 1777739180 | 23.33° C | 22% | 1022.7 hPa | - | - | - | - |
| 1777738279 | 24.44° C | 18% | 1022.8 hPa | - | - | - | - |
* Rain since midnight (hover to see other rain measurements)
** Current wind speed in m/s (hover to see current wind gust speed)